Time;durP1;ratioP1;P1;durP2;ratioP2;P2;SDS_P1;SDS_P2;PMS_P1;PMS_P2;Temp;Humidity;BMP_temperature;BMP_pressure;BME280_temperature;BME280_humidity;BME280_pressure;Samples;Min_cycle;Max_cycle;Signal;HPM_P1;HPM_P2
2022/12/23 00:01:35;;;;;;;;;;;;;;;25.87;41.49;93661.16;5010372;28;7598;-61
2022/12/23 00:04:29;;;;;;;;;;;;;;;25.89;41.62;93650.34;5011597;28;7139;-62
2022/12/23 00:07:27;;;;;;;;;;;;;;;25.89;42.21;93652.34;4988705;28;7563;-61
2022/12/23 00:09:54;;;;;;;;;;;;;;;25.89;42.65;93652.34;4932230;28;9196;-62
2022/12/23 00:15:25;;;;;;;;;;;;;;;25.88;41.76;93637.09;4953650;28;7034;-62
2022/12/23 00:17:51;;;;;;;;;;;;;;;25.90;42.07;93640.06;4931976;28;8838;-61
2022/12/23 00:20:16;;;;;;;;;;;;;;;25.88;41.82;93632.31;4937646;28;7385;-61
2022/12/23 00:23:06;;;;;;;;;;;;;;;25.89;41.95;93631.06;4922176;28;7173;-61
2022/12/23 00:25:43;;;;;;;;;;;;;;;25.89;41.76;93633.81;4950422;28;9045;-61
2022/12/23 00:28:29;;;;;;;;;;;;;;;25.89;41.56;93633.81;4952905;28;7121;-62
2022/12/23 00:31:02;;;;;;;;;;;;;;;25.87;41.64;93625.34;4953148;28;9435;-61
2022/12/23 00:33:39;;;;;;;;;;;;;;;25.89;41.63;93644.09;4951823;28;9315;-62
2022/12/23 00:36:17;;;;;;;;;;;;;;;25.90;42.49;93654.56;4937850;28;7511;-62
2022/12/23 00:45:14;;;;;;;;;;;;;;;25.91;41.86;93658.81;4959991;28;6996;-62
2022/12/23 00:50:44;;;;;;;;;;;;;;;25.91;41.86;93653.31;4995663;28;7291;-62
2022/12/23 00:53:23;;;;;;;;;;;;;;;25.90;41.99;93645.59;4992764;28;8881;-62
2022/12/23 00:55:53;;;;;;;;;;;;;;;25.91;41.83;93647.06;5007343;28;7167;-61
2022/12/23 00:58:20;;;;;;;;;;;;;;;25.91;41.80;93641.53;4990700;28;7245;-61
2022/12/23 01:06:28;;;;;;;;;;;;;;;25.92;42.21;93637.53;4990353;28;7177;-62
2022/12/23 01:09:01;;;;;;;;;;;;;;;25.91;41.63;93641.53;4994889;28;7530;-61
2022/12/23 01:11:33;;;;;;;;;;;;;;;25.91;41.94;93647.06;4993476;28;7092;-62
2022/12/23 01:14:08;;;;;;;;;;;;;;;25.91;41.66;93647.81;4995038;28;7249;-62
2022/12/23 01:16:40;;;;;;;;;;;;;;;25.93;41.51;93658.28;4987350;28;7409;-62
2022/12/23 01:19:06;;;;;;;;;;;;;;;25.93;41.92;93661.03;5008733;28;7039;-62
2022/12/23 01:21:33;;;;;;;;;;;;;;;25.91;42.01;93664.34;4990111;28;7028;-62
2022/12/23 01:24:07;;;;;;;;;;;;;;;25.93;41.91;93670.06;4990469;28;8435;-62
2022/12/23 01:26:44;;;;;;;;;;;;;;;25.93;42.11;93672.81;4994607;28;7239;-62
2022/12/23 01:29:18;;;;;;;;;;;;;;;25.92;41.95;93670.59;4989984;28;7457;-62
2022/12/23 01:31:48;;;;;;;;;;;;;;;25.94;42.07;93685.31;5001144;28;7436;-62
2022/12/23 01:34:44;;;;;;;;;;;;;;;25.94;42.31;93679.06;4994462;28;7408;-62
2022/12/23 01:37:10;;;;;;;;;;;;;;;25.93;42.26;93675.56;4937840;28;9122;-61
2022/12/23 01:39:36;;;;;;;;;;;;;;;25.92;42.46;93671.34;4937286;28;7216;-62
2022/12/23 01:44:59;;;;;;;;;;;;;;;25.91;41.82;93667.09;4949757;28;7480;-61
2022/12/23 01:47:31;;;;;;;;;;;;;;;25.93;41.84;93675.56;4950896;28;7299;-62
2022/12/23 01:50:20;;;;;;;;;;;;;;;25.92;41.44;93676.09;4937152;28;7845;-62
2022/12/23 01:53:08;;;;;;;;;;;;;;;25.93;41.73;93683.81;4947994;28;7041;-62
2022/12/23 01:58:48;;;;;;;;;;;;;;;25.93;41.46;93675.56;4947125;28;8537;-61
2022/12/23 02:04:10;;;;;;;;;;;;;;;25.90;42.17;93690.38;4951250;28;7361;-62
2022/12/23 02:09:41;;;;;;;;;;;;;;;25.93;41.57;93700.34;4952847;28;7320;-62
2022/12/23 02:12:37;;;;;;;;;;;;;;;25.93;41.43;93699.59;4944244;28;6865;-61
2022/12/23 02:18:05;;;;;;;;;;;;;;;25.90;41.67;93712.44;4998796;28;7276;-62
2022/12/23 02:20:55;;;;;;;;;;;;;;;25.92;41.84;93714.66;4995384;28;7039;-61
2022/12/23 02:23:42;;;;;;;;;;;;;;;25.91;41.31;93710.41;4989781;28;7503;-61
2022/12/23 02:26:47;;;;;;;;;;;;;;;25.88;42.40;93703.94;5005093;28;9392;-61
2022/12/23 02:29:39;;;;;;;;;;;;;;;25.89;42.24;93713.72;4958559;28;8573;-61
2022/12/23 02:32:44;;;;;;;;;;;;;;;25.91;42.28;93702.91;4952332;28;7031;-61
2022/12/23 02:35:27;;;;;;;;;;;;;;;25.89;41.68;93693.69;4904187;29;8986;-62
2022/12/23 02:38:04;;;;;;;;;;;;;;;25.90;41.85;93698.66;4893494;29;7278;-61
2022/12/23 02:40:35;;;;;;;;;;;;;;;25.91;41.74;93702.16;4894612;29;7278;-61
2022/12/23 02:43:01;;;;;;;;;;;;;;;25.93;41.99;93708.63;4888954;29;7029;-61
2022/12/23 02:45:45;;;;;;;;;;;;;;;25.95;42.30;93706.09;4889429;29;7077;-61
2022/12/23 02:48:26;;;;;;;;;;;;;;;25.93;42.18;93703.13;4890066;29;7266;-61
2022/12/23 02:50:58;;;;;;;;;;;;;;;25.91;41.82;93689.13;4896080;29;7270;-62
2022/12/23 02:53:34;;;;;;;;;;;;;;;25.92;42.22;93696.13;4899148;29;7329;-62
2022/12/23 02:56:32;;;;;;;;;;;;;;;25.91;41.62;93696.66;4895055;29;7211;-61
2022/12/23 02:59:08;;;;;;;;;;;;;;;25.90;41.60;93695.91;4880635;29;9424;-61
2022/12/23 03:01:50;;;;;;;;;;;;;;;25.90;42.03;93693.13;4895619;29;7199;-62
2022/12/23 03:04:25;;;;;;;;;;;;;;;25.92;41.76;93707.16;4895085;29;7294;-62
2022/12/23 03:06:54;;;;;;;;;;;;;;;25.92;41.83;93709.91;4927308;29;7133;-62
2022/12/23 03:09:51;;;;;;;;;;;;;;;25.92;41.58;93715.41;4932770;29;7216;-62
2022/12/23 03:12:41;;;;;;;;;;;;;;;25.92;42.16;93715.41;4982461;28;7340;-62
2022/12/23 03:16:02;;;;;;;;;;;;;;;25.91;42.15;93724.94;4996460;28;7172;-62
2022/12/23 03:18:43;;;;;;;;;;;;;;;25.89;41.70;93707.47;4992746;28;7484;-62
2022/12/23 03:21:14;;;;;;;;;;;;;;;25.88;42.54;93712.22;4993234;28;7025;-62
2022/12/23 03:23:45;;;;;;;;;;;;;;;25.89;42.19;93705.44;5009452;28;7998;-61
2022/12/23 03:27:01;;;;;;;;;;;;;;;25.90;42.04;93709.66;5004329;28;7059;-61
2022/12/23 03:33:33;;;;;;;;;;;;;;;25.87;42.47;93721.78;4949178;29;7029;-62
2022/12/23 03:36:32;;;;;;;;;;;;;;;25.90;41.56;93734.47;4929823;29;7188;-61
2022/12/23 03:39:13;;;;;;;;;;;;;;;25.88;41.56;93742.53;4889694;29;7037;-62
2022/12/23 03:42:00;;;;;;;;;;;;;;;25.90;41.55;93747.53;4907280;29;7269;-62
2022/12/23 03:44:37;;;;;;;;;;;;;;;25.88;41.98;93726.00;4897315;29;7543;-61
2022/12/23 03:47:22;;;;;;;;;;;;;;;25.89;42.34;93721.97;4902406;29;7134;-62
2022/12/23 03:50:03;;;;;;;;;;;;;;;25.89;42.39;93723.97;4904410;29;7314;-62
2022/12/23 03:52:39;;;;;;;;;;;;;;;25.91;41.46;93715.94;4886345;29;8999;-62
2022/12/23 03:55:18;;;;;;;;;;;;;;;25.90;41.85;93722.72;4913948;29;7722;-62
2022/12/23 03:58:20;;;;;;;;;;;;;;;25.89;41.81;93727.50;4898256;29;7363;-61
2022/12/23 04:01:20;;;;;;;;;;;;;;;25.89;42.31;93716.47;4841634;29;7055;-61
2022/12/23 04:04:08;;;;;;;;;;;;;;;25.92;42.07;93718.19;4790405;29;7098;-62
2022/12/23 04:06:52;;;;;;;;;;;;;;;25.94;41.90;93723.16;4804756;29;6868;-61
2022/12/23 04:09:28;;;;;;;;;;;;;;;25.98;41.66;93718.06;4796764;29;9422;-62
2022/12/23 04:12:07;;;;;;;;;;;;;;;25.99;41.24;93709.25;4802854;29;7264;-61
2022/12/23 04:14:52;;;;;;;;;;;;;;;25.99;41.94;93716.81;4808405;29;7127;-61
2022/12/23 04:17:19;;;;;;;;;;;;;;;25.97;41.83;93717.31;4886414;29;7470;-61
2022/12/23 04:19:46;;;;;;;;;;;;;;;25.95;41.42;93714.34;4879631;29;7204;-61
2022/12/23 04:22:14;;;;;;;;;;;;;;;25.92;41.82;93715.41;4875947;29;8048;-62
2022/12/23 04:24:49;;;;;;;;;;;;;;;25.90;41.63;93717.94;4888896;29;7030;-61
2022/12/23 04:27:30;;;;;;;;;;;;;;;25.91;42.35;93719.44;4864051;29;9157;-62
2022/12/23 04:30:44;;;;;;;;;;;;;;;25.93;42.32;93716.88;4873183;29;7266;-62
2022/12/23 04:33:12;;;;;;;;;;;;;;;25.92;41.76;93709.91;4842020;29;7238;-62
2022/12/23 04:36:02;;;;;;;;;;;;;;;25.93;42.37;93714.13;4840854;29;8534;-62
2022/12/23 04:38:35;;;;;;;;;;;;;;;25.92;42.14;93709.16;4826066;29;7162;-62
2022/12/23 04:41:01;;;;;;;;;;;;;;;25.91;41.79;93696.66;4852641;29;7251;-62
2022/12/23 04:43:43;;;;;;;;;;;;;;;25.90;41.53;93701.41;4898808;29;7033;-62
2022/12/23 04:46:10;;;;;;;;;;;;;;;25.94;41.54;93701.84;4880209;29;7544;-62
2022/12/23 04:48:53;;;;;;;;;;;;;;;25.93;41.98;93699.59;4896401;29;7294;-62
2022/12/23 04:51:34;;;;;;;;;;;;;;;25.92;41.51;93698.13;4897276;29;8244;-62
2022/12/23 04:53:59;;;;;;;;;;;;;;;25.91;41.84;93704.91;4902912;29;9467;-62
2022/12/23 04:56:37;;;;;;;;;;;;;;;25.90;42.41;93697.94;4895704;29;7113;-62
2022/12/23 04:59:05;;;;;;;;;;;;;;;25.88;42.01;93692.94;4896547;29;7180;-62
2022/12/23 05:01:41;;;;;;;;;;;;;;;25.87;42.27;93702.47;4894103;29;7493;-62
2022/12/23 05:04:16;;;;;;;;;;;;;;;25.86;42.29;93700.97;4896476;29;7208;-62
2022/12/23 05:06:52;;;;;;;;;;;;;;;25.88;42.04;93709.47;4896921;29;10136;-61
2022/12/23 05:09:22;;;;;;;;;;;;;;;25.89;42.31;93707.47;4931274;28;7155;-62
2022/12/23 05:11:51;;;;;;;;;;;;;;;25.89;42.01;93713.72;4990490;28;7050;-61
2022/12/23 05:14:24;;;;;;;;;;;;;;;25.90;41.89;93711.72;4988417;28;9160;-62
2022/12/23 05:17:00;;;;;;;;;;;;;;;25.90;42.08;93720.69;5008995;28;9008;-62
2022/12/23 05:19:28;;;;;;;;;;;;;;;25.89;42.26;93721.22;4997438;28;7318;-62
2022/12/23 05:21:54;;;;;;;;;;;;;;;25.92;42.38;93726.44;5005963;28;7137;-62
2022/12/23 05:24:23;;;;;;;;;;;;;;;25.92;42.42;93709.91;4992423;28;8951;-61
2022/12/23 05:27:01;;;;;;;;;;;;;;;25.90;42.18;93708.94;5006119;28;7099;-62
2022/12/23 05:29:30;;;;;;;;;;;;;;;25.88;43.13;93703.22;4989626;28;9163;-62
2022/12/23 05:32:11;;;;;;;;;;;;;;;25.88;42.33;93709.47;4993514;28;7024;-62
2022/12/23 05:34:46;;;;;;;;;;;;;;;25.88;43.07;93697.72;4995999;28;6982;-62
2022/12/23 05:37:12;;;;;;;;;;;;;;;25.89;43.08;93713.72;4990261;28;7135;-61
2022/12/23 05:40:00;;;;;;;;;;;;;;;25.90;42.59;93712.44;4993782;28;7146;-62
2022/12/23 05:42:32;;;;;;;;;;;;;;;25.91;42.24;93713.94;4993805;28;7260;-62
2022/12/23 05:45:19;;;;;;;;;;;;;;;25.92;42.66;93709.16;4995039;28;7327;-62
2022/12/23 05:47:57;;;;;;;;;;;;;;;25.93;42.43;93705.88;5003407;28;7273;-62
2022/12/23 05:50:43;;;;;;;;;;;;;;;25.96;42.80;93709.59;5005691;28;8990;-61
2022/12/23 05:53:09;;;;;;;;;;;;;;;25.95;42.23;93697.81;5003107;28;7275;-61
2022/12/23 05:55:44;;;;;;;;;;;;;;;25.94;42.55;93699.09;4989752;28;7026;-61
2022/12/23 05:58:47;;;;;;;;;;;;;;;25.96;43.00;93707.56;5007190;28;7028;-61
2022/12/23 06:01:25;;;;;;;;;;;;;;;25.97;44.03;93708.28;4951102;28;7166;-60
2022/12/23 06:03:52;;;;;;;;;;;;;;;25.98;42.71;93715.31;4935346;28;7105;-61
2022/12/23 06:06:30;;;;;;;;;;;;;;;25.96;42.64;93709.59;4934715;28;7319;-61
2022/12/23 06:09:13;;;;;;;;;;;;;;;25.96;43.08;93710.34;4932137;28;7240;-61
2022/12/23 06:11:39;;;;;;;;;;;;;;;25.96;42.76;93704.06;4923905;29;9001;-61
2022/12/23 06:14:39;;;;;;;;;;;;;;;25.93;42.57;93710.63;4944360;28;7274;-61
2022/12/23 06:17:05;;;;;;;;;;;;;;;25.93;42.27;93710.63;4868399;29;8461;-61
2022/12/23 06:19:31;;;;;;;;;;;;;;;25.94;43.03;93720.41;4872465;29;8989;-61
2022/12/23 06:21:57;;;;;;;;;;;;;;;25.94;43.30;93723.16;4874846;29;9358;-62
2022/12/23 06:24:25;;;;;;;;;;;;;;;25.94;42.13;93720.41;4873015;29;7040;-61
2022/12/23 06:27:01;;;;;;;;;;;;;;;25.92;42.17;93734.72;4868870;29;7467;-62
2022/12/23 06:29:27;;;;;;;;;;;;;;;25.93;42.58;93738.19;4877551;29;7439;-62
2022/12/23 06:31:58;;;;;;;;;;;;;;;25.91;42.71;93726.94;4872758;29;7223;-62
2022/12/23 06:34:24;;;;;;;;;;;;;;;25.90;42.78;93731.72;4878462;28;9322;-62
2022/12/23 06:36:52;;;;;;;;;;;;;;;25.88;42.94;93728.03;4929743;28;7643;-62
2022/12/23 06:39:26;;;;;;;;;;;;;;;25.87;42.47;93738.28;4930903;28;7056;-62
2022/12/23 06:41:52;;;;;;;;;;;;;;;25.89;42.79;93733.00;4932236;29;7229;-62
2022/12/23 06:44:39;;;;;;;;;;;;;;;25.87;43.12;93724.53;4931763;29;7032;-62
2022/12/23 06:47:18;;;;;;;;;;;;;;;25.89;43.24;93723.97;4931657;29;7036;-62
2022/12/23 06:49:49;;;;;;;;;;;;;;;25.91;42.95;93735.22;4930787;29;7272;-62
2022/12/23 06:52:27;;;;;;;;;;;;;;;25.92;42.77;93742.97;4937215;28;6985;-62
2022/12/23 06:55:06;;;;;;;;;;;;;;;25.93;43.21;93758.22;5004737;28;7281;-62
2022/12/23 06:57:34;;;;;;;;;;;;;;;25.94;42.83;93745.19;4987211;28;10425;-62
2022/12/23 07:00:29;;;;;;;;;;;;;;;25.96;43.18;93746.16;4989955;28;7293;-62
2022/12/23 07:03:04;;;;;;;;;;;;;;;25.97;42.54;93747.63;4961516;28;6989;-63
2022/12/23 07:05:38;;;;;;;;;;;;;;;25.97;42.23;93752.38;4963952;28;7680;-62
2022/12/23 07:08:14;;;;;;;;;;;;;;;25.96;42.68;93754.41;4966087;28;9281;-62
2022/12/23 07:10:41;;;;;;;;;;;;;;;25.95;43.08;93752.16;4969315;28;9381;-61
2022/12/23 07:13:09;;;;;;;;;;;;;;;25.90;42.66;93756.50;4965639;28;8981;-61
2022/12/23 07:15:40;;;;;;;;;;;;;;;25.91;42.92;93758.00;4965033;28;7322;-61
2022/12/23 07:18:07;;;;;;;;;;;;;;;25.88;42.80;93750.06;4944594;28;7288;-61
2022/12/23 07:20:36;;;;;;;;;;;;;;;25.87;43.01;93749.31;4950949;28;8850;-61
2022/12/23 07:23:04;;;;;;;;;;;;;;;25.89;43.35;93746.78;4954942;28;7238;-61
2022/12/23 07:25:32;;;;;;;;;;;;;;;25.89;43.51;93757.78;4967751;28;7035;-61
2022/12/23 07:28:12;;;;;;;;;;;;;;;25.89;42.98;93755.03;4951503;28;7401;-62
2022/12/23 07:30:49;;;;;;;;;;;;;;;25.91;42.96;93760.00;4965452;28;7306;-61
2022/12/23 07:33:16;;;;;;;;;;;;;;;25.91;42.39;93757.25;4942078;28;7448;-62
2022/12/23 07:35:42;;;;;;;;;;;;;;;25.93;42.83;93765.75;4968088;28;7055;-62
2022/12/23 07:38:09;;;;;;;;;;;;;;;25.93;42.93;93760.22;4971746;28;7104;-61
2022/12/23 07:40:36;;;;;;;;;;;;;;;25.93;42.74;93760.22;5008171;28;8979;-62
2022/12/23 07:43:04;;;;;;;;;;;;;;;25.95;42.52;93768.72;4993760;28;9353;-62
2022/12/23 07:45:30;;;;;;;;;;;;;;;25.94;41.98;93767.25;5006886;28;8239;-61
2022/12/23 07:48:07;;;;;;;;;;;;;;;25.95;42.52;93763.94;4988857;28;7301;-62
2022/12/23 07:50:35;;;;;;;;;;;;;;;25.94;42.72;93772.75;4994283;28;7194;-62
2022/12/23 07:53:03;;;;;;;;;;;;;;;25.93;42.58;93772.00;4993620;28;9362;-61
2022/12/23 07:55:38;;;;;;;;;;;;;;;25.96;42.20;93770.22;4992599;28;7669;-62
2022/12/23 07:58:11;;;;;;;;;;;;;;;25.96;42.56;93783.97;4993017;28;7050;-62
2022/12/23 08:00:37;;;;;;;;;;;;;;;25.93;42.08;93776.75;4987857;28;7392;-62
2022/12/23 08:03:02;;;;;;;;;;;;;;;25.96;42.69;93783.97;4997975;28;7166;-61
2022/12/23 08:05:28;;;;;;;;;;;;;;;25.96;42.31;93776.47;4991438;28;9562;-62
2022/12/23 08:07:54;;;;;;;;;;;;;;;25.93;42.43;93772.00;5009135;28;7464;-61
2022/12/23 08:10:24;;;;;;;;;;;;;;;25.92;42.42;93778.78;5012909;28;7840;-62
2022/12/23 08:12:59;;;;;;;;;;;;;;;25.93;42.47;93779.50;5008409;28;7381;-62
2022/12/23 08:15:26;;;;;;;;;;;;;;;25.91;42.35;93771.03;5004000;28;7693;-62
2022/12/23 08:17:57;;;;;;;;;;;;;;;25.92;42.42;93772.53;5012152;28;9118;-62
2022/12/23 08:20:23;;;;;;;;;;;;;;;25.91;42.23;93763.53;5007895;28;8597;-62
2022/12/23 08:22:49;;;;;;;;;;;;;;;25.92;42.64;93770.53;4988081;28;8970;-61
2022/12/23 08:25:17;;;;;;;;;;;;;;;25.93;42.42;93782.28;5005941;28;7260;-62
2022/12/23 08:27:42;;;;;;;;;;;;;;;25.89;42.37;93782.59;4990292;28;9310;-62
2022/12/23 08:30:09;;;;;;;;;;;;;;;25.91;42.86;93782.06;5019828;28;6999;-62
2022/12/23 08:32:37;;;;;;;;;;;;;;;25.88;42.53;93785.88;5003049;28;7041;-61
2022/12/23 08:35:17;;;;;;;;;;;;;;;25.88;42.83;93789.34;5006104;28;7427;-62
2022/12/23 08:37:43;;;;;;;;;;;;;;;25.87;42.90;93784.38;4980305;28;9870;-61
2022/12/23 08:40:12;;;;;;;;;;;;;;;25.91;43.18;93787.56;4994565;28;7019;-62
2022/12/23 08:42:38;;;;;;;;;;;;;;;25.91;42.72;93796.59;4992506;28;7260;-62
2022/12/23 08:45:09;;;;;;;;;;;;;;;25.91;42.67;93796.59;4994187;28;9155;-62
2022/12/23 08:48:01;;;;;;;;;;;;;;;25.92;43.50;93792.56;4992598;28;7271;-61
2022/12/23 08:50:28;;;;;;;;;;;;;;;25.93;42.95;93802.31;4936257;28;8866;-62
2022/12/23 08:53:11;;;;;;;;;;;;;;;25.96;43.46;93804.03;4939743;28;7404;-62
2022/12/23 08:56:09;;;;;;;;;;;;;;;25.94;43.21;93801.06;4936556;28;7942;-62
2022/12/23 08:58:49;;;;;;;;;;;;;;;25.92;43.00;93798.09;4855760;29;7331;-61
2022/12/23 09:01:17;;;;;;;;;;;;;;;25.93;43.31;93807.81;4854205;29;7240;-61
2022/12/23 09:04:02;;;;;;;;;;;;;;;25.94;42.63;93801.06;4855880;29;7220;-61
2022/12/23 09:06:39;;;;;;;;;;;;;;;25.94;45.08;93809.31;4855624;29;7202;-62
2022/12/23 09:09:09;;;;;;;;;;;;;;;25.92;45.85;93808.34;4853161;29;7099;-62
2022/12/23 09:11:45;;;;;;;;;;;;;;;25.89;44.04;93804.63;4857936;29;8001;-62
2022/12/23 09:14:35;;;;;;;;;;;;;;;25.90;44.24;93811.63;4856275;29;7068;-61
2022/12/23 09:17:03;;;;;;;;;;;;;;;25.88;44.32;93816.91;4855042;29;7610;-62
2022/12/23 09:19:32;;;;;;;;;;;;;;;25.89;44.58;93815.66;4857726;29;7502;-62
2022/12/23 09:21:58;;;;;;;;;;;;;;;25.91;43.59;93818.63;4853019;29;7255;-62
2022/12/23 09:24:26;;;;;;;;;;;;;;;25.94;43.81;93825.84;4856944;29;7296;-62
2022/12/23 09:26:52;;;;;;;;;;;;;;;25.94;43.95;93820.34;4877976;29;9408;-62
2022/12/23 09:29:23;;;;;;;;;;;;;;;25.91;44.08;93804.84;4914773;29;7266;-62
2022/12/23 09:32:09;;;;;;;;;;;;;;;25.86;43.66;93810.47;4912483;29;7591;-62
2022/12/23 09:34:48;;;;;;;;;;;;;;;25.84;44.37;93813.72;4937370;28;7021;-62
2022/12/23 09:37:15;;;;;;;;;;;;;;;25.86;44.49;93819.44;4988361;28;8911;-62
2022/12/23 09:39:59;;;;;;;;;;;;;;;25.89;44.40;93818.41;4990329;28;7267;-62
2022/12/23 09:42:49;;;;;;;;;;;;;;;25.90;43.80;93817.13;5003790;28;7078;-62
2022/12/23 09:45:56;;;;;;;;;;;;;;;25.88;43.89;93813.44;4987493;28;6981;-62
2022/12/23 09:48:29;;;;;;;;;;;;;;;25.86;43.79;93807.72;4908132;28;7213;-61
2022/12/23 09:51:34;;;;;;;;;;;;;;;25.88;43.54;93803.13;4930072;28;9057;-62
2022/12/23 09:54:20;;;;;;;;;;;;;;;25.90;44.40;93795.09;4880963;29;9088;-62
2022/12/23 09:57:15;;;;;;;;;;;;;;;25.92;44.35;93789.81;4867944;29;7177;-62
2022/12/23 10:00:08;;;;;;;;;;;;;;;25.93;43.55;93785.78;4872725;29;7262;-62
2022/12/23 10:02:59;;;;;;;;;;;;;;;25.94;43.81;93779.00;4868053;29;7060;-62
2022/12/23 10:05:49;;;;;;;;;;;;;;;25.95;44.55;93774.97;4859377;29;7226;-62
2022/12/23 10:08:27;;;;;;;;;;;;;;;25.92;44.00;93770.53;4875017;29;7469;-62
2022/12/23 10:11:01;;;;;;;;;;;;;;;25.90;44.17;93753.75;4874065;29;7327;-62
2022/12/23 10:14:19;;;;;;;;;;;;;;;25.88;44.75;93761.81;4877756;29;7283;-62
2022/12/23 10:17:06;;;;;;;;;;;;;;;25.90;44.64;93767.53;4818189;29;8024;-62
2022/12/23 10:19:40;;;;;;;;;;;;;;;25.91;44.67;93763.53;4802673;29;7193;-62
2022/12/23 10:22:19;;;;;;;;;;;;;;;25.93;44.24;93760.22;4815352;29;9055;-62
2022/12/23 10:24:47;;;;;;;;;;;;;;;25.95;44.61;93758.44;4817550;29;7289;-62
2022/12/23 10:27:45;;;;;;;;;;;;;;;25.96;45.59;93759.19;4873452;29;8386;-62
2022/12/23 10:30:36;;;;;;;;;;;;;;;25.98;45.00;93756.63;4854475;29;7050;-61
2022/12/23 10:33:28;;;;;;;;;;;;;;;25.97;44.96;93750.38;4869246;29;8997;-62
2022/12/23 10:36:07;;;;;;;;;;;;;;;25.96;44.69;93748.91;4853226;29;9273;-61
2022/12/23 10:38:49;;;;;;;;;;;;;;;25.95;44.55;93746.66;4866861;29;7039;-62
2022/12/23 10:41:48;;;;;;;;;;;;;;;25.98;44.26;93760.13;4875575;29;7041;-62
2022/12/23 10:44:52;;;;;;;;;;;;;;;25.96;44.07;93746.16;4874762;29;7065;-62
2022/12/23 10:47:30;;;;;;;;;;;;;;;25.95;44.46;93747.41;4858592;29;7015;-62
2022/12/23 10:50:08;;;;;;;;;;;;;;;25.95;44.09;93743.91;4871870;29;9398;-62
2022/12/23 10:52:47;;;;;;;;;;;;;;;25.96;44.30;93740.66;4921628;28;7240;-62
2022/12/23 10:55:31;;;;;;;;;;;;;;;25.96;44.08;93743.41;4948124;28;7873;-62
2022/12/23 10:58:08;;;;;;;;;;;;;;;25.97;44.34;93728.34;4952233;28;9092;-62
2022/12/23 11:00:39;;;;;;;;;;;;;;;26.00;44.17;93745.81;4939030;28;7593;-62
2022/12/23 11:03:28;;;;;;;;;;;;;;;26.00;44.18;93743.81;4948383;28;8222;-62
2022/12/23 11:05:57;;;;;;;;;;;;;;;26.00;44.02;93752.09;4943588;28;7583;-62
2022/12/23 11:08:35;;;;;;;;;;;;;;;26.00;44.30;93754.09;4989674;28;7032;-62
2022/12/23 11:11:09;;;;;;;;;;;;;;;25.99;43.58;93747.13;4990870;28;9478;-62
2022/12/23 11:13:40;;;;;;;;;;;;;;;25.98;43.93;93746.38;4990040;28;8652;-62
2022/12/23 11:16:31;;;;;;;;;;;;;;;25.98;44.07;93746.38;4990105;28;7268;-62
2022/12/23 11:19:06;;;;;;;;;;;;;;;26.02;44.10;93740.53;5003330;28;7269;-62
2022/12/23 11:21:33;;;;;;;;;;;;;;;26.01;43.78;93736.31;4989621;28;7901;-62
2022/12/23 11:24:32;;;;;;;;;;;;;;;26.00;43.45;93735.56;4990350;28;7592;-62
2022/12/23 11:27:03;;;;;;;;;;;;;;;25.99;44.27;93728.53;4947850;29;8885;-62
2022/12/23 11:29:48;;;;;;;;;;;;;;;25.99;43.79;93725.78;4924810;29;9233;-62
2022/12/23 11:32:22;;;;;;;;;;;;;;;25.96;43.95;93713.09;4925828;29;7157;-61
2022/12/23 11:34:52;;;;;;;;;;;;;;;25.95;44.04;93725.38;4949307;29;7442;-62
2022/12/23 11:37:27;;;;;;;;;;;;;;;25.91;44.56;93719.44;4940735;28;7069;-62
2022/12/23 11:39:54;;;;;;;;;;;;;;;25.82;44.06;93716.34;4934315;29;9537;-62
2022/12/23 11:42:40;;;;;;;;;;;;;;;25.77;44.07;93708.94;4930625;29;9642;-62
2022/12/23 11:45:23;;;;;;;;;;;;;;;25.74;44.66;93704.47;4933975;29;7204;-62
2022/12/23 11:48:01;;;;;;;;;;;;;;;25.74;44.43;93705.22;4932995;29;7448;-62
2022/12/23 11:50:37;;;;;;;;;;;;;;;25.74;44.45;93709.97;4943505;28;7393;-62
2022/12/23 11:53:25;;;;;;;;;;;;;;;25.77;44.73;93706.94;4929725;29;7278;-62
2022/12/23 11:56:13;;;;;;;;;;;;;;;25.79;44.76;93704.38;4943498;28;7231;-62
2022/12/23 11:58:52;;;;;;;;;;;;;;;25.81;44.45;93704.59;4927742;29;7268;-62
2022/12/23 12:01:22;;;;;;;;;;;;;;;25.79;45.41;93703.63;4932282;28;7548;-62
2022/12/23 12:04:03;;;;;;;;;;;;;;;25.80;45.30;93702.34;4972604;28;7167;-62
2022/12/23 12:06:32;;;;;;;;;;;;;;;25.83;45.12;93693.03;4991365;28;7311;-62
2022/12/23 12:09:03;;;;;;;;;;;;;;;25.85;45.30;93699.50;4991958;28;9164;-62
2022/12/23 12:11:43;;;;;;;;;;;;;;;25.87;44.58;93690.72;5006738;28;7036;-62
2022/12/23 12:14:41;;;;;;;;;;;;;;;25.87;44.18;93685.94;4991622;28;7286;-62
2022/12/23 12:17:39;;;;;;;;;;;;;;;25.88;45.04;93686.69;4991578;28;8472;-61
2022/12/23 12:20:38;;;;;;;;;;;;;;;25.90;45.08;93689.66;5002309;28;7162;-62
2022/12/23 12:23:38;;;;;;;;;;;;;;;25.87;44.26;93685.94;4989904;28;7442;-62
2022/12/23 12:26:16;;;;;;;;;;;;;;;25.84;44.23;93687.00;5006107;28;7254;-61
2022/12/23 12:28:48;;;;;;;;;;;;;;;25.88;44.16;93689.47;4992425;28;7226;-62
2022/12/23 12:31:51;;;;;;;;;;;;;;;25.87;44.21;93691.47;4994350;28;7731;-62
2022/12/23 12:34:55;;;;;;;;;;;;;;;25.88;44.19;93679.16;4947099;28;7238;-63
2022/12/23 12:37:22;;;;;;;;;;;;;;;25.90;44.68;93681.41;4944786;28;7588;-62
2022/12/23 12:39:56;;;;;;;;;;;;;;;25.89;44.39;93680.66;4945788;28;7265;-62
2022/12/23 12:42:45;;;;;;;;;;;;;;;25.89;44.92;93677.91;4950611;28;7659;-62
2022/12/23 12:45:38;;;;;;;;;;;;;;;25.90;44.79;93679.38;4937098;28;8442;-62
2022/12/23 12:51:50;;;;;;;;;;;;;;;25.87;44.35;93669.41;4952747;28;7036;-62
2022/12/23 12:54:42;;;;;;;;;;;;;;;25.90;43.95;93676.59;4951818;28;7204;-62
2022/12/23 12:57:25;;;;;;;;;;;;;;;25.89;44.51;93677.16;4951979;28;7059;-62
2022/12/23 13:00:22;;;;;;;;;;;;;;;25.88;44.65;93679.16;4947909;28;8706;-62
2022/12/23 13:03:22;;;;;;;;;;;;;;;25.87;43.74;93674.94;4880215;29;9284;-62
2022/12/23 13:06:46;;;;;;;;;;;;;;;25.86;44.15;93678.94;4876262;29;7286;-62
2022/12/23 13:09:49;;;;;;;;;;;;;;;25.85;44.51;93668.47;4884927;29;7454;-62
2022/12/23 13:12:32;;;;;;;;;;;;;;;25.81;44.62;93676.31;4914565;29;7208;-62
2022/12/23 13:15:17;;;;;;;;;;;;;;;25.81;44.48;93671.53;4914189;29;7483;-62
2022/12/23 13:18:20;;;;;;;;;;;;;;;25.82;44.08;93672.25;4909797;29;7035;-62
2022/12/23 13:21:28;;;;;;;;;;;;;;;25.80;44.10;93672.06;4921237;29;7236;-62
2022/12/23 13:24:06;;;;;;;;;;;;;;;25.81;44.96;93671.53;4910741;29;7043;-62
2022/12/23 13:26:38;;;;;;;;;;;;;;;25.81;44.30;93665.28;4920856;29;7324;-61
2022/12/23 13:32:39;;;;;;;;;;;;;;;25.83;44.13;93668.25;4916813;29;7687;-61
2022/12/23 13:35:22;;;;;;;;;;;;;;;25.85;44.40;93660.94;4909969;29;9689;-61
2022/12/23 13:38:25;;;;;;;;;;;;;;;25.85;44.05;93660.94;4910523;29;7052;-61
2022/12/23 13:41:15;;;;;;;;;;;;;;;25.89;43.96;93671.63;4990114;28;8236;-61
2022/12/23 13:43:50;;;;;;;;;;;;;;;25.87;44.74;93663.91;4991367;28;7477;-62
2022/12/23 13:46:34;;;;;;;;;;;;;;;25.86;44.42;93659.66;4985968;28;7354;-62
2022/12/23 13:49:13;;;;;;;;;;;;;;;25.82;44.12;93648.22;4990156;28;7145;-62
2022/12/23 13:52:20;;;;;;;;;;;;;;;25.85;43.88;93652.69;5006794;28;7161;-62
2022/12/23 13:55:01;;;;;;;;;;;;;;;25.84;44.70;93645.69;5008566;28;7024;-62
2022/12/23 13:57:38;;;;;;;;;;;;;;;25.82;43.83;93650.97;4992692;28;7057;-62
2022/12/23 14:00:30;;;;;;;;;;;;;;;25.80;44.73;93650.03;4987068;28;7377;-61
2022/12/23 14:02:59;;;;;;;;;;;;;;;25.82;44.62;93639.97;5007267;28;7299;-62
2022/12/23 14:05:32;;;;;;;;;;;;;;;25.83;44.37;93644.22;5002893;28;7602;-62
2022/12/23 14:08:06;;;;;;;;;;;;;;;25.86;44.42;93642.41;5005045;28;7250;-62
2022/12/23 14:10:37;;;;;;;;;;;;;;;25.91;43.35;93652.56;4999404;28;7447;-62
2022/12/23 14:13:07;;;;;;;;;;;;;;;25.90;43.78;93651.81;4988157;28;7793;-62
2022/12/23 14:15:51;;;;;;;;;;;;;;;25.89;44.01;93658.59;4990182;28;7278;-62
2022/12/23 14:18:31;;;;;;;;;;;;;;;25.89;43.41;93668.88;4986697;28;7368;-62
2022/12/23 14:21:10;;;;;;;;;;;;;;;25.87;43.88;93669.41;4990760;28;8357;-62
2022/12/23 14:24:03;;;;;;;;;;;;;;;25.90;43.22;93671.09;4996516;28;8553;-62
2022/12/23 14:27:11;;;;;;;;;;;;;;;25.90;43.45;93684.88;4986856;28;8348;-61
2022/12/23 14:30:12;;;;;;;;;;;;;;;25.90;43.39;93676.59;4986560;28;9597;-62
2022/12/23 14:32:42;;;;;;;;;;;;;;;25.92;43.92;93684.38;4957781;28;10417;-62
2022/12/23 14:35:27;;;;;;;;;;;;;;;25.90;43.91;93693.13;4966690;28;7534;-62
2022/12/23 14:38:20;;;;;;;;;;;;;;;25.88;43.23;93690.19;4969479;28;9205;-61
2022/12/23 14:41:12;;;;;;;;;;;;;;;25.86;43.93;93695.47;4969762;28;7239;-61
2022/12/23 14:43:44;;;;;;;;;;;;;;;25.86;44.02;93689.25;4966249;28;7076;-61